Time;durP1;ratioP1;P1;durP2;ratioP2;P2;SDS_P1;SDS_P2;PMS_P1;PMS_P2;Temp;Humidity;BMP_temperature;BMP_pressure;BME280_temperature;BME280_humidity;BME280_pressure;Samples;Min_cycle;Max_cycle;Signal;HPM_P1;HPM_P2
2023/06/27 00:00:51;;;;;;;58.57;56.67;;;16.30;99.90;;;;;;4930984;29;20226;-84
2023/06/27 00:03:18;;;;;;;60.73;58.73;;;16.30;99.90;;;;;;4913724;29;20253;-84
2023/06/27 00:05:44;;;;;;;55.60;53.70;;;16.30;99.90;;;;;;4913480;29;20254;-84
2023/06/27 00:08:10;;;;;;;53.10;51.20;;;16.20;99.90;;;;;;4913619;29;20233;-84
2023/06/27 00:10:36;;;;;;;60.27;58.33;;;16.20;99.90;;;;;;4913711;28;20348;-84
2023/06/27 00:13:01;;;;;;;58.97;57.07;;;16.20;99.90;;;;;;4913774;29;20714;-83
2023/06/27 00:15:29;;;;;;;63.40;61.17;;;16.30;99.90;;;;;;4930358;28;20638;-83
2023/06/27 00:17:55;;;;;;;60.37;58.37;;;16.30;99.90;;;;;;4929128;29;20363;-83
2023/06/27 00:20:21;;;;;;;60.90;58.50;;;16.30;99.90;;;;;;4929003;29;20218;-83
2023/06/27 00:22:47;;;;;;;56.83;54.63;;;16.30;99.90;;;;;;4913015;29;20248;-84
2023/06/27 00:25:13;;;;;;;57.67;55.60;;;16.30;99.90;;;;;;4929790;29;20273;-82
2023/06/27 00:27:39;;;;;;;63.03;60.97;;;16.30;99.90;;;;;;4930044;28;20780;-84
2023/06/27 00:30:05;;;;;;;59.23;57.27;;;16.40;99.90;;;;;;4930151;28;20222;-83
2023/06/27 00:32:31;;;;;;;57.07;55.17;;;16.50;99.90;;;;;;4929007;29;20237;-84
2023/06/27 00:34:57;;;;;;;57.23;55.43;;;16.50;99.90;;;;;;4912821;29;20726;-83
2023/06/27 00:37:23;;;;;;;69.03;66.90;;;16.50;99.90;;;;;;4928839;28;20198;-83
2023/06/27 00:39:48;;;;;;;63.80;61.47;;;16.50;99.90;;;;;;4929615;29;20227;-83
2023/06/27 00:42:14;;;;;;;72.67;70.27;;;16.50;99.90;;;;;;4928558;29;20244;-83
2023/06/27 00:44:40;;;;;;;65.47;63.43;;;16.50;99.90;;;;;;4928747;29;20800;-84
2023/06/27 00:47:06;;;;;;;63.93;61.87;;;16.50;99.90;;;;;;4912811;29;20297;-83
2023/06/27 00:49:32;;;;;;;53.20;51.33;;;16.50;99.90;;;;;;4897610;28;20301;-83
2023/06/27 00:51:59;;;;;;;58.17;55.87;;;16.50;99.90;;;;;;4913257;29;20738;-83
2023/06/27 00:54:25;;;;;;;59.67;57.37;;;16.40;99.90;;;;;;4929955;28;20234;-83
2023/06/27 00:56:55;;;;;;;53.97;52.20;;;16.40;99.90;;;;;;4928496;29;20237;-83
2023/06/27 00:59:22;;;;;;;50.53;48.63;;;16.30;99.90;;;;;;4929783;28;20245;-83
2023/06/27 01:01:48;;;;;;;49.57;47.73;;;16.30;99.90;;;;;;4928557;29;20593;-83
2023/06/27 01:04:14;;;;;;;51.50;49.50;;;16.30;99.90;;;;;;4930181;29;20292;-83
2023/06/27 01:06:56;;;;;;;44.93;43.53;;;16.30;99.90;;;;;;4928629;29;20234;-83
2023/06/27 01:09:28;;;;;;;44.43;43.00;;;16.30;99.90;;;;;;4929715;28;20225;-83
2023/06/27 01:12:05;;;;;;;42.73;40.93;;;16.30;99.90;;;;;;4929411;28;20233;-83
2023/06/27 01:14:33;;;;;;;40.73;39.13;;;16.30;99.90;;;;;;4928723;29;20221;-83
2023/06/27 01:17:00;;;;;;;53.90;52.00;;;16.40;99.90;;;;;;4928291;29;20672;-84
2023/06/27 01:19:29;;;;;;;47.90;46.30;;;16.40;99.90;;;;;;4928341;28;20547;-83
2023/06/27 01:22:08;;;;;;;48.03;46.47;;;16.40;99.90;;;;;;4928591;29;20341;-82
2023/06/27 01:24:36;;;;;;;48.33;46.73;;;16.40;99.90;;;;;;4928285;29;20371;-82
2023/06/27 01:27:03;;;;;;;55.23;53.53;;;16.40;99.90;;;;;;4912643;29;20226;-82
2023/06/27 01:29:32;;;;;;;50.47;48.77;;;16.40;99.90;;;;;;4912993;29;20224;-82
2023/06/27 01:32:39;;;;;;;47.60;45.93;;;16.40;99.90;;;;;;4912708;29;20373;-82
2023/06/27 01:35:19;;;;;;;48.13;46.57;;;16.40;99.90;;;;;;4888801;29;20311;-83
2023/06/27 01:38:02;;;;;;;51.33;49.63;;;16.50;99.90;;;;;;4930635;28;20643;-82
2023/06/27 01:40:32;;;;;;;42.03;40.67;;;16.40;99.90;;;;;;4933222;28;20170;-82
2023/06/27 01:43:06;;;;;;;46.80;45.33;;;16.40;99.90;;;;;;4933618;28;20178;-83
2023/06/27 01:45:32;;;;;;;64.43;62.40;;;16.50;99.90;;;;;;4931984;29;20255;-82
2023/06/27 01:47:59;;;;;;;52.37;50.00;;;16.50;99.90;;;;;;4931997;29;20232;-81
2023/06/27 01:50:26;;;;;;;50.23;48.47;;;16.60;99.90;;;;;;4932036;29;20234;-82
2023/06/27 01:52:51;;;;;;;52.37;50.63;;;16.60;99.90;;;;;;4915933;29;20226;-82
2023/06/27 01:55:18;;;;;;;66.80;64.60;;;16.60;99.90;;;;;;4932157;29;20550;-82
2023/06/27 01:57:44;;;;;;;54.30;52.50;;;16.60;99.90;;;;;;4931747;29;20305;-82
2023/06/27 02:00:10;;;;;;;49.70;48.03;;;16.60;99.90;;;;;;4915368;29;20226;-83
2023/06/27 02:02:36;;;;;;;58.87;57.03;;;16.60;99.90;;;;;;4931916;29;20324;-82
2023/06/27 02:05:02;;;;;;;71.67;69.47;;;16.60;99.90;;;;;;4931408;29;20277;-83
2023/06/27 02:07:28;;;;;;;56.20;54.10;;;16.60;99.90;;;;;;4931695;28;20771;-83
2023/06/27 02:09:54;;;;;;;55.40;53.33;;;16.60;99.90;;;;;;4900720;29;20276;-82
2023/06/27 02:12:20;;;;;;;67.17;65.07;;;16.60;99.90;;;;;;4899792;29;20217;-83
2023/06/27 02:14:45;;;;;;;51.37;49.70;;;16.50;99.90;;;;;;4932653;28;20653;-83
2023/06/27 02:17:11;;;;;;;48.87;47.27;;;16.50;99.90;;;;;;4932446;28;20236;-82
2023/06/27 02:19:37;;;;;;;60.37;58.37;;;16.50;99.90;;;;;;4931329;28;20553;-81
2023/06/27 02:22:03;;;;;;;59.30;57.33;;;16.50;99.90;;;;;;4900530;29;20195;-83
2023/06/27 02:24:28;;;;;;;54.77;52.87;;;16.40;99.90;;;;;;4899812;29;20214;-82
2023/06/27 02:26:54;;;;;;;60.93;58.90;;;16.30;99.90;;;;;;4915365;29;20730;-83
2023/06/27 02:29:20;;;;;;;60.80;58.73;;;16.30;99.90;;;;;;4915222;29;20699;-81
2023/06/27 02:31:45;;;;;;;55.10;53.30;;;16.30;99.90;;;;;;4899536;29;20261;-82
2023/06/27 02:34:11;;;;;;;52.27;50.23;;;16.30;99.90;;;;;;4931787;29;20280;-82
2023/06/27 02:36:37;;;;;;;54.40;52.63;;;16.30;99.90;;;;;;4899811;29;20268;-82
2023/06/27 02:39:03;;;;;;;52.60;50.80;;;16.30;99.90;;;;;;4899708;29;20245;-82
2023/06/27 02:41:28;;;;;;;55.87;54.07;;;16.30;99.90;;;;;;4915187;29;20209;-83
2023/06/27 02:43:54;;;;;;;61.00;59.03;;;16.20;99.90;;;;;;4931023;29;20245;-83
2023/06/27 02:46:20;;;;;;;58.30;56.30;;;16.20;99.90;;;;;;4899074;28;20213;-83
2023/06/27 02:48:46;;;;;;;53.20;51.17;;;16.20;99.90;;;;;;4931593;29;20772;-82
2023/06/27 02:51:12;;;;;;;48.07;46.53;;;16.20;99.90;;;;;;4932170;28;20277;-83
2023/06/27 02:53:37;;;;;;;48.73;47.17;;;16.20;99.90;;;;;;4930615;29;20265;-83
2023/06/27 02:56:04;;;;;;;56.60;54.80;;;16.20;99.90;;;;;;4899016;29;20217;-83
2023/06/27 02:58:30;;;;;;;51.40;49.77;;;16.30;99.90;;;;;;4930059;28;20277;-83
2023/06/27 03:00:58;;;;;;;53.03;50.57;;;16.20;99.90;;;;;;4946711;29;20741;-83
2023/06/27 03:03:25;;;;;;;49.13;47.60;;;16.30;99.90;;;;;;4914828;29;20687;-83
2023/06/27 03:05:50;;;;;;;55.80;54.03;;;16.30;99.90;;;;;;4929912;29;20296;-83
2023/06/27 03:08:16;;;;;;;62.93;60.90;;;16.20;99.90;;;;;;4930016;29;20831;-83
2023/06/27 03:10:42;;;;;;;61.53;59.50;;;16.20;99.90;;;;;;4930533;28;20236;-82
2023/06/27 03:13:08;;;;;;;61.63;58.73;;;16.20;99.90;;;;;;4914981;29;20210;-83
2023/06/27 03:15:34;;;;;;;55.80;54.03;;;16.20;99.90;;;;;;4914497;29;20233;-83
2023/06/27 03:18:00;;;;;;;52.83;51.03;;;16.20;99.90;;;;;;4930155;29;20218;-82
2023/06/27 03:20:26;;;;;;;52.53;50.87;;;16.20;99.90;;;;;;4930417;29;20671;-82
2023/06/27 03:22:52;;;;;;;58.03;55.90;;;16.20;99.90;;;;;;4930450;29;20698;-83
2023/06/27 03:25:18;;;;;;;47.77;46.17;;;16.30;99.90;;;;;;4931915;28;20217;-83
2023/06/27 03:27:43;;;;;;;58.33;56.43;;;16.30;99.90;;;;;;4930599;28;20314;-84
2023/06/27 03:30:10;;;;;;;54.50;52.50;;;16.30;99.90;;;;;;4914503;29;20810;-84
2023/06/27 03:32:36;;;;;;;55.17;53.23;;;16.30;99.90;;;;;;4929980;29;20241;-82
2023/06/27 03:35:02;;;;;;;59.60;57.67;;;16.30;99.90;;;;;;4931190;28;20228;-84
2023/06/27 03:37:28;;;;;;;57.70;55.87;;;16.30;99.90;;;;;;4929886;28;20186;-83
2023/06/27 03:39:56;;;;;;;57.20;55.33;;;16.30;99.90;;;;;;4898593;29;20253;-84
2023/06/27 03:42:21;;;;;;;57.63;55.67;;;16.30;99.90;;;;;;4929828;29;20222;-84
2023/06/27 03:44:47;;;;;;;65.00;62.77;;;16.30;99.90;;;;;;4913979;29;20305;-84
2023/06/27 03:47:13;;;;;;;63.10;61.10;;;16.30;99.90;;;;;;4929491;29;20232;-84
2023/06/27 03:49:38;;;;;;;59.50;57.43;;;16.30;99.90;;;;;;4929878;28;20179;-83
2023/06/27 03:52:04;;;;;;;62.30;60.33;;;16.30;99.90;;;;;;4898424;29;20218;-83
2023/06/27 03:54:30;;;;;;;60.23;58.33;;;16.40;99.90;;;;;;4913765;29;20229;-84
2023/06/27 03:56:56;;;;;;;67.20;64.03;;;16.40;99.90;;;;;;4929593;29;20751;-83
2023/06/27 03:59:21;;;;;;;62.73;60.63;;;16.40;99.90;;;;;;4912729;29;20702;-83
2023/06/27 04:01:47;;;;;;;65.60;63.27;;;16.50;99.90;;;;;;4898121;29;20249;-83
2023/06/27 04:04:13;;;;;;;62.03;60.03;;;16.50;99.90;;;;;;4913683;29;20278;-83
2023/06/27 04:06:39;;;;;;;59.20;57.20;;;16.50;99.90;;;;;;4929509;29;20253;-83
2023/06/27 04:09:05;;;;;;;64.67;62.30;;;16.50;99.90;;;;;;4913474;29;20829;-83
2023/06/27 04:11:31;;;;;;;65.90;63.83;;;16.60;99.90;;;;;;4913212;29;20820;-83
2023/06/27 04:13:59;;;;;;;62.33;60.00;;;16.60;99.90;;;;;;4930442;28;20232;-83
2023/06/27 04:16:26;;;;;;;58.53;56.63;;;16.70;99.90;;;;;;4913383;28;20293;-84
2023/06/27 04:18:52;;;;;;;60.77;58.80;;;16.70;99.90;;;;;;4930834;29;20186;-83
2023/06/27 04:21:18;;;;;;;60.37;58.17;;;16.70;99.90;;;;;;4929315;29;20241;-83
2023/06/27 04:23:44;;;;;;;54.80;53.07;;;16.80;99.90;;;;;;4929081;29;20291;-83
2023/06/27 04:26:15;;;;;;;63.53;61.53;;;16.80;99.90;;;;;;4913410;29;20296;-83
2023/06/27 04:28:43;;;;;;;60.63;58.70;;;16.90;99.90;;;;;;4928948;28;20229;-83
2023/06/27 04:31:09;;;;;;;56.80;55.00;;;16.90;99.90;;;;;;4929659;29;20192;-83
2023/06/27 04:33:39;;;;;;;61.40;59.40;;;16.90;99.90;;;;;;4930307;28;20702;-83
2023/06/27 04:36:06;;;;;;;65.13;62.97;;;17.00;99.90;;;;;;4928876;29;20233;-83
2023/06/27 04:38:40;;;;;;;61.07;58.57;;;17.00;99.90;;;;;;4930132;28;20217;-83
2023/06/27 04:41:10;;;;;;;64.00;62.00;;;17.10;99.90;;;;;;4928673;29;20710;-82
2023/06/27 04:43:39;;;;;;;64.50;62.40;;;17.10;99.90;;;;;;4929966;28;20190;-83
2023/06/27 04:46:05;;;;;;;66.50;64.07;;;17.10;99.90;;;;;;4929287;29;20182;-84
2023/06/27 04:48:31;;;;;;;64.67;62.33;;;17.30;99.90;;;;;;4928851;29;20228;-83
2023/06/27 04:50:56;;;;;;;68.70;66.30;;;17.30;99.90;;;;;;4913105;29;20243;-83
2023/06/27 04:53:23;;;;;;;67.90;65.57;;;17.40;99.90;;;;;;4928330;29;20237;-83
2023/06/27 04:55:50;;;;;;;68.17;65.97;;;17.40;99.90;;;;;;4912808;29;20269;-83
2023/06/27 04:58:17;;;;;;;68.73;66.53;;;17.50;99.90;;;;;;4912487;29;20699;-83
2023/06/27 05:00:44;;;;;;;71.27;69.00;;;17.50;99.90;;;;;;4928715;29;20222;-83
2023/06/27 05:03:10;;;;;;;69.80;67.50;;;17.60;99.90;;;;;;4912403;29;20866;-82
2023/06/27 05:05:36;;;;;;;70.90;68.67;;;17.70;99.90;;;;;;4928337;29;20238;-83
2023/06/27 05:08:04;;;;;;;77.00;74.57;;;17.70;99.90;;;;;;4928749;29;20218;-84
2023/06/27 05:10:30;;;;;;;75.07;72.53;;;17.80;99.90;;;;;;4928206;28;20575;-83
2023/06/27 05:12:57;;;;;;;73.13;70.80;;;17.90;99.90;;;;;;4928967;29;20237;-83
2023/06/27 05:15:23;;;;;;;74.10;71.63;;;17.90;99.90;;;;;;4928479;29;20288;-83
2023/06/27 05:18:07;;;;;;;67.07;64.90;;;18.30;99.90;;;;;;4928488;29;20256;-83
2023/06/27 05:20:33;;;;;;;74.27;71.87;;;19.50;99.90;;;;;;4928408;29;20225;-84
2023/06/27 05:23:01;;;;;;;78.40;75.93;;;21.20;99.90;;;;;;4928213;29;20272;-83
2023/06/27 05:25:26;;;;;;;55.53;53.67;;;22.00;99.90;;;;;;4928578;28;20186;-84
2023/06/27 05:27:52;;;;;;;50.67;48.77;;;21.60;99.90;;;;;;4897306;29;20209;-84
2023/06/27 05:30:20;;;;;;;73.30;70.90;;;20.50;99.90;;;;;;4912330;29;20222;-83
2023/06/27 05:32:46;;;;;;;42.53;41.13;;;21.20;99.90;;;;;;4928123;29;20241;-84
2023/06/27 05:35:12;;;;;;;37.80;36.50;;;22.50;99.90;;;;;;4944052;28;20700;-83
2023/06/27 05:37:38;;;;;;;27.40;26.47;;;23.60;99.90;;;;;;4912385;28;20273;-83
2023/06/27 05:40:04;;;;;;;29.70;28.70;;;24.40;99.90;;;;;;4912963;29;20190;-83
2023/06/27 05:42:30;;;;;;;30.83;29.57;;;24.70;99.90;;;;;;4927904;29;20229;-83
2023/06/27 05:44:55;;;;;;;22.37;21.67;;;24.80;99.90;;;;;;4928096;29;20231;-83
2023/06/27 05:47:21;;;;;;;26.37;25.30;;;24.90;99.90;;;;;;4912445;29;20571;-82
2023/06/27 05:49:48;;;;;;;22.33;21.52;;;25.10;99.90;;;;;;4929081;29;20820;-82
2023/06/27 05:52:14;;;;;;;24.38;23.45;;;25.40;99.90;;;;;;4928739;29;20232;-84
2023/06/27 05:54:43;;;;;;;28.83;27.73;;;25.80;99.90;;;;;;4929748;28;20277;-81
2023/06/27 05:57:09;;;;;;;27.25;26.40;;;25.20;99.90;;;;;;4927941;29;20301;-83
2023/06/27 05:59:35;;;;;;;29.63;28.65;;;25.30;99.90;;;;;;4912307;29;20225;-83
2023/06/27 06:02:01;;;;;;;27.63;26.73;;;25.30;99.90;;;;;;4928126;29;20222;-83
2023/06/27 06:04:27;;;;;;;26.15;25.05;;;25.60;99.90;;;;;;4927552;28;20781;-83
2023/06/27 06:06:53;;;;;;;29.05;28.15;;;26.20;99.90;;;;;;4897360;29;20213;-83
2023/06/27 06:09:19;;;;;;;28.58;27.38;;;25.80;99.90;;;;;;4896481;29;20229;-83
2023/06/27 06:11:44;;;;;;;29.08;27.88;;;26.40;99.90;;;;;;4912083;29;20310;-83
2023/06/27 06:14:10;;;;;;;31.88;30.48;;;25.80;99.90;;;;;;4912007;29;20230;-82
2023/06/27 06:16:36;;;;;;;28.25;27.25;;;25.00;99.90;;;;;;4929074;28;20236;-82
2023/06/27 06:19:03;;;;;;;33.65;32.55;;;25.50;99.90;;;;;;4912198;29;20183;-83
2023/06/27 06:21:29;;;;;;;35.42;34.05;;;25.50;99.90;;;;;;4912793;29;20233;-82
2023/06/27 06:23:55;;;;;;;31.23;29.80;;;25.70;99.90;;;;;;4932059;28;20217;-83
2023/06/27 06:26:21;;;;;;;33.30;32.17;;;26.40;99.90;;;;;;4931079;29;20823;-84
2023/06/27 06:28:47;;;;;;;30.27;29.08;;;26.20;99.90;;;;;;4930872;29;20300;-82
2023/06/27 06:31:16;;;;;;;31.23;30.23;;;25.70;99.90;;;;;;4915845;29;20273;-85
2023/06/27 06:33:46;;;;;;;29.75;28.55;;;25.90;99.90;;;;;;4931077;29;20237;-85
2023/06/27 06:36:12;;;;;;;37.63;35.72;;;25.60;99.90;;;;;;4914982;29;20234;-86
2023/06/27 06:38:39;;;;;;;29.90;28.63;;;24.70;99.90;;;;;;4915110;29;20226;-86
2023/06/27 06:41:05;;;;;;;33.78;32.42;;;23.90;99.90;;;;;;4915123;29;20218;-86
2023/06/27 06:43:30;;;;;;;35.58;34.15;;;23.90;99.90;;;;;;4930851;28;20772;-86
2023/06/27 06:45:56;;;;;;;34.22;32.85;;;23.00;99.90;;;;;;4931420;29;20450;-85
2023/06/27 06:48:23;;;;;;;32.75;31.40;;;23.40;99.90;;;;;;4915140;29;20226;-86
2023/06/27 06:50:53;;;;;;;33.10;31.63;;;24.00;99.90;;;;;;4931126;29;20218;-86
2023/06/27 06:53:19;;;;;;;32.85;31.75;;;23.70;99.90;;;;;;4915111;29;20249;-86
2023/06/27 06:55:48;;;;;;;35.17;33.97;;;24.00;99.90;;;;;;4914891;29;20229;-84
2023/06/27 06:58:14;;;;;;;30.27;29.08;;;24.50;99.90;;;;;;4931123;29;20190;-85
2023/06/27 07:00:40;;;;;;;30.15;29.02;;;25.20;99.90;;;;;;4914859;29;20230;-86
2023/06/27 07:03:09;;;;;;;28.13;27.00;;;25.20;99.90;;;;;;4914965;29;20221;-86
2023/06/27 07:05:40;;;;;;;33.70;32.33;;;24.20;99.90;;;;;;4914361;29;20237;-82
2023/06/27 07:08:06;;;;;;;30.73;29.73;;;22.80;99.90;;;;;;4931563;28;20225;-83
2023/06/27 07:10:32;;;;;;;32.65;31.45;;;23.10;99.90;;;;;;4930522;28;20177;-82
2023/06/27 07:12:59;;;;;;;33.03;31.77;;;23.70;99.90;;;;;;4915252;29;20210;-84
2023/06/27 07:15:26;;;;;;;33.35;32.25;;;24.40;99.90;;;;;;4930346;29;20236;-82
2023/06/27 07:17:52;;;;;;;31.90;30.83;;;24.90;99.90;;;;;;4930390;29;20226;-82
2023/06/27 07:20:20;;;;;;;30.23;28.73;;;25.90;99.90;;;;;;4914260;29;20276;-82
2023/06/27 07:22:46;;;;;;;31.45;30.25;;;25.40;99.90;;;;;;4930450;29;20221;-82
2023/06/27 07:25:12;;;;;;;28.77;27.58;;;24.20;99.90;;;;;;4914774;29;20182;-84
2023/06/27 07:27:38;;;;;;;32.35;31.25;;;23.20;99.90;;;;;;4931474;28;20229;-82
2023/06/27 07:30:05;;;;;;;32.72;31.55;;;22.70;99.90;;;;;;4931086;28;20221;-82
2023/06/27 07:32:30;;;;;;;32.75;31.67;;;22.30;99.90;;;;;;4929525;29;20234;-83
2023/06/27 07:34:56;;;;;;;33.42;32.22;;;22.50;99.90;;;;;;4930546;28;20405;-82
2023/06/27 07:37:22;;;;;;;30.17;29.20;;;22.50;99.90;;;;;;4929805;28;20182;-82
2023/06/27 07:39:48;;;;;;;35.00;33.90;;;22.40;99.90;;;;;;4927859;29;20840;-82
2023/06/27 07:42:13;;;;;;;30.65;29.60;;;22.00;99.90;;;;;;4928000;29;20222;-82
2023/06/27 07:44:39;;;;;;;46.95;45.25;;;21.90;99.90;;;;;;4912716;29;20631;-83
2023/06/27 07:47:05;;;;;;;33.72;32.58;;;21.90;99.90;;;;;;4912678;29;20582;-83
2023/06/27 07:49:32;;;;;;;30.17;29.00;;;21.60;99.90;;;;;;4913165;28;20193;-83
2023/06/27 07:52:00;;;;;;;40.80;39.20;;;21.40;99.90;;;;;;4944512;29;20264;-83
2023/06/27 07:54:27;;;;;;;31.88;30.88;;;21.60;99.90;;;;;;4930143;28;20825;-82
2023/06/27 07:56:56;;;;;;;33.03;31.98;;;21.90;99.90;;;;;;4912690;29;20253;-83
2023/06/27 07:59:22;;;;;;;34.65;33.25;;;22.20;99.90;;;;;;4929023;29;20867;-82
2023/06/27 08:01:48;;;;;;;33.38;32.15;;;22.50;99.90;;;;;;4930914;28;20222;-83
2023/06/27 08:04:15;;;;;;;48.42;46.70;;;22.60;99.90;;;;;;4930877;29;20359;-82
2023/06/27 08:06:42;;;;;;;29.38;28.17;;;22.60;99.90;;;;;;4930370;28;20226;-82
2023/06/27 08:09:08;;;;;;;30.50;29.30;;;23.00;99.90;;;;;;4930772;28;20218;-83
2023/06/27 08:11:34;;;;;;;31.77;30.65;;;23.50;99.90;;;;;;4929379;29;20292;-82
2023/06/27 08:14:00;;;;;;;32.00;30.80;;;24.00;99.90;;;;;;4930658;28;20234;-82
2023/06/27 08:16:26;;;;;;;32.50;30.95;;;24.80;99.90;;;;;;4928908;28;20214;-82
2023/06/27 08:18:56;;;;;;;30.05;29.05;;;24.90;99.90;;;;;;4930026;29;20210;-83
2023/06/27 08:21:21;;;;;;;30.55;29.48;;;25.00;99.90;;;;;;4929160;29;20604;-82
2023/06/27 08:23:47;;;;;;;25.75;24.85;;;24.80;99.90;;;;;;4897925;29;20229;-83
2023/06/27 08:26:17;;;;;;;27.63;26.50;;;24.50;99.90;;;;;;4930284;28;20217;-83
2023/06/27 08:28:44;;;;;;;30.00;28.95;;;24.80;99.90;;;;;;4929984;28;20217;-82
2023/06/27 08:31:11;;;;;;;31.15;30.00;;;23.70;99.90;;;;;;4930700;28;20208;-82
2023/06/27 08:33:37;;;;;;;32.72;31.20;;;23.40;99.90;;;;;;4928772;29;20241;-83
2023/06/27 08:36:02;;;;;;;26.95;25.88;;;23.00;99.90;;;;;;4906063;29;20314;-83
2023/06/27 08:38:28;;;;;;;30.55;29.45;;;22.70;99.90;;;;;;4928709;29;20257;-84
2023/06/27 08:40:55;;;;;;;32.22;31.05;;;22.50;99.90;;;;;;4913144;29;20217;-83
2023/06/27 08:43:22;;;;;;;32.38;31.15;;;22.60;99.90;;;;;;4928900;28;20201;-81
2023/06/27 08:45:56;;;;;;;33.53;32.33;;;22.60;99.90;;;;;;4913212;29;20648;-83
2023/06/27 08:48:22;;;;;;;26.67;25.58;;;22.50;99.90;;;;;;4929036;29;20252;-82
2023/06/27 08:50:53;;;;;;;27.77;26.77;;;21.90;99.90;;;;;;4928798;29;20874;-82
2023/06/27 08:53:21;;;;;;;31.80;30.70;;;21.90;99.90;;;;;;4930025;28;20233;-82
2023/06/27 08:56:04;;;;;;;33.00;31.75;;;21.70;99.90;;;;;;4944423;28;20284;-82
2023/06/27 08:58:50;;;;;;;37.08;35.67;;;21.60;99.90;;;;;;4929797;28;20179;-82
2023/06/27 09:01:16;;;;;;;32.33;31.20;;;21.70;99.90;;;;;;4929055;29;20178;-82
2023/06/27 09:03:42;;;;;;;35.50;33.97;;;21.60;99.90;;;;;;4912743;29;20226;-81
2023/06/27 09:06:08;;;;;;;32.03;30.42;;;21.50;99.90;;;;;;4929760;28;20782;-82
2023/06/27 09:08:35;;;;;;;43.17;41.78;;;21.40;99.90;;;;;;4929574;28;20237;-81
2023/06/27 09:11:01;;;;;;;34.83;33.70;;;21.80;99.90;;;;;;4928597;29;20248;-81
2023/06/27 09:13:27;;;;;;;26.00;25.10;;;21.90;99.90;;;;;;4912475;28;20251;-81
2023/06/27 09:15:53;;;;;;;34.10;32.63;;;22.00;99.90;;;;;;4928837;29;20213;-81
2023/06/27 09:18:19;;;;;;;34.25;32.90;;;22.10;99.90;;;;;;4929800;28;20221;-79
2023/06/27 09:20:46;;;;;;;37.33;36.13;;;22.20;99.90;;;;;;4897017;29;20252;-80
2023/06/27 09:23:12;;;;;;;29.75;28.77;;;22.30;99.90;;;;;;4929303;28;20522;-80
2023/06/27 09:25:38;;;;;;;27.23;26.25;;;22.20;99.90;;;;;;4928439;28;20624;-80
2023/06/27 09:28:17;;;;;;;25.60;24.65;;;22.00;99.90;;;;;;4928883;29;20258;-81
2023/06/27 09:30:57;;;;;;;33.10;31.75;;;22.30;99.90;;;;;;4928805;28;20293;-80
2023/06/27 09:33:23;;;;;;;23.25;22.35;;;22.30;99.90;;;;;;4929367;28;20234;-80
2023/06/27 09:35:50;;;;;;;22.35;21.65;;;22.70;99.90;;;;;;4928555;29;20585;-81
2023/06/27 09:38:18;;;;;;;30.23;29.05;;;22.50;99.90;;;;;;4929529;28;20230;-80
2023/06/27 09:40:44;;;;;;;29.88;28.77;;;22.70;99.90;;;;;;4929307;28;20285;-81
2023/06/27 09:43:11;;;;;;;25.92;25.13;;;22.50;99.90;;;;;;4929006;29;20189;-80
2023/06/27 09:45:37;;;;;;;25.73;24.42;;;22.70;99.90;;;;;;4929457;28;20226;-81
2023/06/27 09:48:07;;;;;;;24.75;23.95;;;22.60;99.90;;;;;;4912486;29;20288;-81
2023/06/27 09:50:33;;;;;;;27.27;26.17;;;22.30;99.90;;;;;;4928239;29;20222;-80
2023/06/27 09:53:00;;;;;;;26.73;25.80;;;22.50;99.90;;;;;;4928207;29;20328;-81
2023/06/27 09:55:29;;;;;;;30.08;28.83;;;22.30;99.90;;;;;;4929065;28;20186;-82
2023/06/27 09:57:56;;;;;;;26.48;25.30;;;22.20;99.90;;;;;;4933063;29;20186;-81
2023/06/27 10:00:22;;;;;;;31.20;30.10;;;22.40;99.90;;;;;;4933023;28;20305;-81
2023/06/27 10:02:50;;;;;;;40.10;38.47;;;22.60;99.90;;;;;;4931692;29;20233;-82
2023/06/27 10:05:16;;;;;;;31.25;30.15;;;22.70;99.90;;;;;;4933001;28;20229;-81
2023/06/27 10:07:44;;;;;;;26.27;25.45;;;23.30;99.90;;;;;;4932461;28;20233;-82
2023/06/27 10:10:11;;;;;;;27.52;26.63;;;24.10;99.90;;;;;;4933493;29;20214;-81
2023/06/27 10:12:37;;;;;;;22.70;21.95;;;23.20;99.90;;;;;;4931239;29;20265;-81
2023/06/27 10:15:05;;;;;;;27.48;26.58;;;23.30;99.90;;;;;;4932771;28;20222;-81
2023/06/27 10:17:31;;;;;;;23.85;22.83;;;23.20;99.90;;;;;;4932425;28;20261;-82
2023/06/27 10:19:58;;;;;;;22.02;21.02;;;22.90;99.90;;;;;;4932590;28;20237;-82
2023/06/27 10:22:29;;;;;;;27.20;25.83;;;23.20;99.90;;;;;;4931271;28;20594;-82
2023/06/27 10:25:05;;;;;;;27.50;26.50;;;23.30;99.90;;;;;;4933378;28;20175;-82
2023/06/27 10:27:35;;;;;;;30.38;28.80;;;23.50;99.90;;;;;;4931108;29;20264;-82
2023/06/27 10:30:44;;;;;;;35.55;33.00;;;23.40;99.90;;;;;;4930990;29;20230;-81
2023/06/27 10:33:21;;;;;;;49.67;48.08;;;23.10;99.90;;;;;;4912516;29;20234;-82
2023/06/27 10:35:55;;;;;;;25.60;24.80;;;22.90;99.90;;;;;;4932123;28;20816;-81
2023/06/27 10:38:21;;;;;;;27.60;26.52;;;22.60;99.90;;;;;;4947170;28;20236;-81
2023/06/27 10:43:47;;;;;;;27.50;26.52;;;22.70;99.90;;;;;;4932089;28;20178;-82
2023/06/27 10:46:20;;;;;;;27.70;26.70;;;22.60;99.90;;;;;;4931547;29;20178;-82
2023/06/27 10:48:59;;;;;;;36.00;34.75;;;22.50;99.90;;;;;;4931071;29;20265;-81
2023/06/27 10:51:34;;;;;;;27.77;26.85;;;22.40;99.90;;;;;;4930655;28;20245;-81
2023/06/27 10:54:09;;;;;;;30.10;29.00;;;22.50;99.90;;;;;;4932231;28;20248;-82
2023/06/27 10:56:40;;;;;;;30.45;29.38;;;22.70;99.90;;;;;;4931879;28;20309;-81
2023/06/27 10:59:16;;;;;;;59.42;57.22;;;23.00;99.90;;;;;;4931859;28;20218;-81
2023/06/27 11:01:49;;;;;;;37.15;35.70;;;23.20;99.90;;;;;;4931738;28;20225;-81
2023/06/27 11:04:22;;;;;;;32.25;31.02;;;22.40;99.90;;;;;;4930904;29;20245;-81
2023/06/27 11:06:48;;;;;;;29.33;28.42;;;22.50;99.90;;;;;;4928244;29;20214;-81
2023/06/27 11:09:16;;;;;;;27.73;26.67;;;22.30;99.90;;;;;;4929968;28;20246;-81
2023/06/27 11:12:06;;;;;;;25.30;24.40;;;22.00;99.90;;;;;;4929189;29;20305;-81
2023/06/27 11:14:34;;;;;;;51.83;49.90;;;22.20;99.90;;;;;;4931154;28;20265;-81
2023/06/27 11:17:03;;;;;;;33.75;32.47;;;22.30;99.90;;;;;;4930156;28;20758;-81
2023/06/27 11:19:34;;;;;;;23.35;21.77;;;22.50;99.90;;;;;;4944567;28;20178;-82
2023/06/27 11:22:01;;;;;;;23.67;22.77;;;22.40;99.90;;;;;;4930262;29;20181;-81
2023/06/27 11:24:29;;;;;;;39.97;38.60;;;22.30;99.90;;;;;;4929115;29;20221;-81
2023/06/27 11:26:56;;;;;;;26.13;24.98;;;22.60;99.90;;;;;;4929299;29;20352;-81
2023/06/27 11:29:22;;;;;;;24.30;23.40;;;22.70;99.90;;;;;;4928576;29;20534;-81
2023/06/27 11:31:49;;;;;;;24.50;23.50;;;22.60;99.90;;;;;;4928954;29;20214;-81
2023/06/27 11:34:16;;;;;;;24.30;23.60;;;22.70;99.90;;;;;;4929880;29;20641;-81
2023/06/27 11:36:43;;;;;;;30.58;29.55;;;22.80;99.90;;;;;;4930202;28;20213;-81
2023/06/27 11:39:12;;;;;;;45.92;44.30;;;22.90;99.90;;;;;;4944589;28;20218;-83
2023/06/27 11:41:43;;;;;;;28.17;26.90;;;22.90;99.90;;;;;;4928943;29;20210;-81
2023/06/27 11:44:15;;;;;;;28.25;26.63;;;23.00;99.90;;;;;;4929580;28;20214;-81
2023/06/27 11:46:51;;;;;;;37.92;36.15;;;23.30;99.90;;;;;;4930262;28;20362;-83
2023/06/27 11:49:21;;;;;;;33.10;32.00;;;23.10;99.90;;;;;;4912572;29;20186;-83
2023/06/27 11:51:47;;;;;;;30.95;29.48;;;23.10;99.90;;;;;;4930386;29;20209;-83
2023/06/27 11:54:17;;;;;;;33.88;32.75;;;23.20;99.90;;;;;;4928787;28;20222;-83
2023/06/27 11:56:42;;;;;;;28.92;27.92;;;23.30;99.90;;;;;;4928428;29;20214;-82
2023/06/27 11:59:08;;;;;;;46.08;44.42;;;23.10;99.90;;;;;;4896368;29;20210;-83
2023/06/27 12:01:41;;;;;;;27.83;26.83;;;22.80;99.90;;;;;;4927741;28;20217;-80
2023/06/27 12:04:15;;;;;;;22.75;21.65;;;23.00;99.90;;;;;;4930561;29;20635;-81
2023/06/27 12:06:43;;;;;;;32.60;31.13;;;23.00;99.90;;;;;;4929641;28;20250;-81
2023/06/27 12:09:29;;;;;;;25.30;24.45;;;22.70;99.90;;;;;;4929260;28;20217;-81
2023/06/27 12:11:58;;;;;;;31.95;30.85;;;22.50;99.90;;;;;;4928614;28;20317;-81
2023/06/27 12:14:25;;;;;;;25.08;24.23;;;22.80;99.90;;;;;;4930300;28;20225;-82
2023/06/27 12:16:52;;;;;;;26.48;25.48;;;22.50;99.90;;;;;;4930184;28;20439;-84
2023/06/27 12:19:20;;;;;;;30.70;29.65;;;22.40;99.90;;;;;;4913360;29;20273;-84
2023/06/27 12:21:46;;;;;;;43.38;41.78;;;22.70;99.90;;;;;;4930699;29;20289;-83
2023/06/27 12:24:12;;;;;;;26.80;25.80;;;22.80;99.90;;;;;;4929158;28;20214;-84
2023/06/27 12:26:39;;;;;;;53.33;51.65;;;22.70;99.90;;;;;;4913482;29;20232;-83
2023/06/27 12:29:13;;;;;;;28.10;26.67;;;22.40;99.90;;;;;;4930051;28;20252;-83
2023/06/27 12:31:42;;;;;;;29.38;28.17;;;22.20;99.90;;;;;;4929138;28;20200;-84
2023/06/27 12:34:08;;;;;;;44.97;43.38;;;21.90;99.90;;;;;;4930654;29;20210;-84